sensor_id;sensor_type;location;lat;lon;timestamp;temperature;humidity
46784;DHT22;32544;52.832;13.816;2022-12-07T00:00:16;22.90;49.00
46784;DHT22;32544;52.832;13.816;2022-12-07T00:02:17;22.90;49.00
46784;DHT22;32544;52.832;13.816;2022-12-07T00:03:18;22.90;49.20
46784;DHT22;32544;52.832;13.816;2022-12-07T00:04:18;22.90;49.00
46784;DHT22;32544;52.832;13.816;2022-12-07T00:05:19;22.90;49.10
46784;DHT22;32544;52.832;13.816;2022-12-07T00:06:20;22.90;49.00
46784;DHT22;32544;52.832;13.816;2022-12-07T00:07:20;22.90;49.00
46784;DHT22;32544;52.832;13.816;2022-12-07T00:08:21;22.90;49.10
46784;DHT22;32544;52.832;13.816;2022-12-07T00:09:22;22.90;49.00
46784;DHT22;32544;52.832;13.816;2022-12-07T00:10:22;22.90;49.30
46784;DHT22;32544;52.832;13.816;2022-12-07T00:11:23;22.90;49.00
46784;DHT22;32544;52.832;13.816;2022-12-07T00:12:23;22.90;49.10
46784;DHT22;32544;52.832;13.816;2022-12-07T00:13:24;22.90;49.00
46784;DHT22;32544;52.832;13.816;2022-12-07T00:14:25;22.90;49.10
46784;DHT22;32544;52.832;13.816;2022-12-07T00:15:25;22.90;49.10
46784;DHT22;32544;52.832;13.816;2022-12-07T00:16:27;22.90;49.00
46784;DHT22;32544;52.832;13.816;2022-12-07T00:17:28;22.90;49.10
46784;DHT22;32544;52.832;13.816;2022-12-07T00:18:29;22.90;49.00
46784;DHT22;32544;52.832;13.816;2022-12-07T00:19:29;22.90;49.00
46784;DHT22;32544;52.832;13.816;2022-12-07T00:20:30;22.90;49.00
46784;DHT22;32544;52.832;13.816;2022-12-07T00:21:32;22.90;49.10
46784;DHT22;32544;52.832;13.816;2022-12-07T00:22:33;22.90;49.20
46784;DHT22;32544;52.832;13.816;2022-12-07T00:23:33;22.80;49.00
46784;DHT22;32544;52.832;13.816;2022-12-07T00:24:34;22.80;49.00
46784;DHT22;32544;52.832;13.816;2022-12-07T00:25:35;22.90;49.00
46784;DHT22;32544;52.832;13.816;2022-12-07T00:26:36;22.90;49.10
46784;DHT22;32544;52.832;13.816;2022-12-07T00:27:38;22.80;49.00
46784;DHT22;32544;52.832;13.816;2022-12-07T00:28:39;22.80;49.00
46784;DHT22;32544;52.832;13.816;2022-12-07T00:29:40;22.90;49.20
46784;DHT22;32544;52.832;13.816;2022-12-07T00:30:40;22.80;49.10
46784;DHT22;32544;52.832;13.816;2022-12-07T00:31:41;22.80;49.10
46784;DHT22;32544;52.832;13.816;2022-12-07T00:32:42;22.80;49.10
46784;DHT22;32544;52.832;13.816;2022-12-07T00:33:42;22.90;49.00
46784;DHT22;32544;52.832;13.816;2022-12-07T00:34:43;22.80;49.00
46784;DHT22;32544;52.832;13.816;2022-12-07T00:35:43;22.80;49.00
46784;DHT22;32544;52.832;13.816;2022-12-07T00:36:44;22.80;49.10
46784;DHT22;32544;52.832;13.816;2022-12-07T00:37:45;22.80;49.10
46784;DHT22;32544;52.832;13.816;2022-12-07T00:38:45;22.90;49.10
46784;DHT22;32544;52.832;13.816;2022-12-07T00:39:46;22.80;49.10
46784;DHT22;32544;52.832;13.816;2022-12-07T00:40:53;22.80;49.00
46784;DHT22;32544;52.832;13.816;2022-12-07T00:41:54;22.80;49.00
46784;DHT22;32544;52.832;13.816;2022-12-07T00:42:54;22.80;49.00
46784;DHT22;32544;52.832;13.816;2022-12-07T00:43:55;22.80;49.00
46784;DHT22;32544;52.832;13.816;2022-12-07T00:44:56;22.80;49.00
46784;DHT22;32544;52.832;13.816;2022-12-07T00:45:56;22.80;49.00
46784;DHT22;32544;52.832;13.816;2022-12-07T00:46:57;22.80;49.00
46784;DHT22;32544;52.832;13.816;2022-12-07T00:47:58;22.80;49.00
46784;DHT22;32544;52.832;13.816;2022-12-07T00:48:58;22.80;49.00
46784;DHT22;32544;52.832;13.816;2022-12-07T00:49:59;22.80;49.00
46784;DHT22;32544;52.832;13.816;2022-12-07T00:51:00;22.80;49.10
46784;DHT22;32544;52.832;13.816;2022-12-07T00:52:01;22.80;49.00
46784;DHT22;32544;52.832;13.816;2022-12-07T00:53:02;22.80;49.00
46784;DHT22;32544;52.832;13.816;2022-12-07T00:54:02;22.80;49.00
46784;DHT22;32544;52.832;13.816;2022-12-07T00:55:03;22.80;49.00
46784;DHT22;32544;52.832;13.816;2022-12-07T00:57:16;22.80;49.00
46784;DHT22;32544;52.832;13.816;2022-12-07T00:58:17;22.80;48.90
46784;DHT22;32544;52.832;13.816;2022-12-07T00:59:17;22.80;49.00
46784;DHT22;32544;52.832;13.816;2022-12-07T01:00:18;22.80;49.10
46784;DHT22;32544;52.832;13.816;2022-12-07T01:01:19;22.80;49.00
46784;DHT22;32544;52.832;13.816;2022-12-07T01:02:19;22.80;49.00
46784;DHT22;32544;52.832;13.816;2022-12-07T01:03:20;22.80;48.90
46784;DHT22;32544;52.832;13.816;2022-12-07T01:04:21;22.80;48.90
46784;DHT22;32544;52.832;13.816;2022-12-07T01:05:21;22.80;49.00
46784;DHT22;32544;52.832;13.816;2022-12-07T01:06:22;22.80;49.00
46784;DHT22;32544;52.832;13.816;2022-12-07T01:07:23;22.80;48.90
46784;DHT22;32544;52.832;13.816;2022-12-07T01:08:24;22.80;48.90
46784;DHT22;32544;52.832;13.816;2022-12-07T01:09:25;22.80;48.90
46784;DHT22;32544;52.832;13.816;2022-12-07T01:10:26;22.80;48.90
46784;DHT22;32544;52.832;13.816;2022-12-07T01:11:27;22.80;48.90
46784;DHT22;32544;52.832;13.816;2022-12-07T01:12:28;22.80;48.80
46784;DHT22;32544;52.832;13.816;2022-12-07T01:13:29;22.80;48.90
46784;DHT22;32544;52.832;13.816;2022-12-07T01:14:30;22.80;48.80
46784;DHT22;32544;52.832;13.816;2022-12-07T01:15:31;22.80;48.90
46784;DHT22;32544;52.832;13.816;2022-12-07T01:16:32;22.80;48.90
46784;DHT22;32544;52.832;13.816;2022-12-07T01:17:32;22.80;49.00
46784;DHT22;32544;52.832;13.816;2022-12-07T01:18:34;22.80;49.00
46784;DHT22;32544;52.832;13.816;2022-12-07T01:19:35;22.80;49.00
46784;DHT22;32544;52.832;13.816;2022-12-07T01:20:36;22.80;49.10
46784;DHT22;32544;52.832;13.816;2022-12-07T01:21:37;22.80;49.00
46784;DHT22;32544;52.832;13.816;2022-12-07T01:22:38;22.80;49.00
46784;DHT22;32544;52.832;13.816;2022-12-07T01:23:39;22.80;48.90
46784;DHT22;32544;52.832;13.816;2022-12-07T01:24:40;22.80;49.00
46784;DHT22;32544;52.832;13.816;2022-12-07T01:25:41;22.80;48.90
46784;DHT22;32544;52.832;13.816;2022-12-07T01:26:41;22.80;48.90
46784;DHT22;32544;52.832;13.816;2022-12-07T01:27:42;22.80;49.00
46784;DHT22;32544;52.832;13.816;2022-12-07T01:28:43;22.80;48.90
46784;DHT22;32544;52.832;13.816;2022-12-07T01:29:43;22.80;48.90
46784;DHT22;32544;52.832;13.816;2022-12-07T01:30:44;22.80;48.80
46784;DHT22;32544;52.832;13.816;2022-12-07T01:31:45;22.80;48.90
46784;DHT22;32544;52.832;13.816;2022-12-07T01:32:48;22.80;48.80
46784;DHT22;32544;52.832;13.816;2022-12-07T01:33:53;22.80;48.80
46784;DHT22;32544;52.832;13.816;2022-12-07T01:34:54;22.80;48.80
46784;DHT22;32544;52.832;13.816;2022-12-07T01:35:54;22.80;48.80
46784;DHT22;32544;52.832;13.816;2022-12-07T01:36:55;22.90;48.90
46784;DHT22;32544;52.832;13.816;2022-12-07T01:37:56;22.80;48.90
46784;DHT22;32544;52.832;13.816;2022-12-07T01:38:57;22.80;48.90
46784;DHT22;32544;52.832;13.816;2022-12-07T01:39:58;22.80;48.80
46784;DHT22;32544;52.832;13.816;2022-12-07T01:40:59;22.80;48.80
46784;DHT22;32544;52.832;13.816;2022-12-07T01:42:00;22.80;48.90
46784;DHT22;32544;52.832;13.816;2022-12-07T01:43:01;22.80;49.00
46784;DHT22;32544;52.832;13.816;2022-12-07T01:46:30;22.80;48.90
46784;DHT22;32544;52.832;13.816;2022-12-07T01:47:31;22.80;48.90
46784;DHT22;32544;52.832;13.816;2022-12-07T01:48:33;22.80;48.90
46784;DHT22;32544;52.832;13.816;2022-12-07T01:49:42;22.80;48.90
46784;DHT22;32544;52.832;13.816;2022-12-07T01:50:44;22.80;48.90
46784;DHT22;32544;52.832;13.816;2022-12-07T01:51:45;22.80;48.90
46784;DHT22;32544;52.832;13.816;2022-12-07T01:52:47;22.80;48.90
46784;DHT22;32544;52.832;13.816;2022-12-07T01:53:48;22.80;48.90
46784;DHT22;32544;52.832;13.816;2022-12-07T01:54:50;22.80;49.00
46784;DHT22;32544;52.832;13.816;2022-12-07T01:55:52;22.80;48.90
46784;DHT22;32544;52.832;13.816;2022-12-07T01:56:53;22.80;49.00
46784;DHT22;32544;52.832;13.816;2022-12-07T01:57:55;22.80;48.90
46784;DHT22;32544;52.832;13.816;2022-12-07T01:58:55;22.80;48.90
46784;DHT22;32544;52.832;13.816;2022-12-07T01:59:58;22.80;48.90
46784;DHT22;32544;52.832;13.816;2022-12-07T02:01:13;22.80;49.00
46784;DHT22;32544;52.832;13.816;2022-12-07T02:02:22;22.80;48.90
46784;DHT22;32544;52.832;13.816;2022-12-07T02:03:34;22.80;48.80
46784;DHT22;32544;52.832;13.816;2022-12-07T02:04:36;22.80;48.80
46784;DHT22;32544;52.832;13.816;2022-12-07T02:05:37;23.00;48.90
46784;DHT22;32544;52.832;13.816;2022-12-07T02:06:38;22.80;48.80
46784;DHT22;32544;52.832;13.816;2022-12-07T02:07:39;22.80;48.80
46784;DHT22;32544;52.832;13.816;2022-12-07T02:08:40;22.90;48.90
46784;DHT22;32544;52.832;13.816;2022-12-07T02:09:41;22.80;48.80
46784;DHT22;32544;52.832;13.816;2022-12-07T02:10:42;22.80;48.80
46784;DHT22;32544;52.832;13.816;2022-12-07T02:11:42;22.80;48.70
46784;DHT22;32544;52.832;13.816;2022-12-07T02:12:47;22.80;48.70
46784;DHT22;32544;52.832;13.816;2022-12-07T02:13:48;22.80;48.70
46784;DHT22;32544;52.832;13.816;2022-12-07T02:14:49;22.80;48.70
46784;DHT22;32544;52.832;13.816;2022-12-07T02:16:54;22.80;48.70
46784;DHT22;32544;52.832;13.816;2022-12-07T02:18:01;22.80;48.70
46784;DHT22;32544;52.832;13.816;2022-12-07T02:19:20;22.80;48.70
46784;DHT22;32544;52.832;13.816;2022-12-07T02:20:30;22.80;48.70
46784;DHT22;32544;52.832;13.816;2022-12-07T02:21:46;22.80;48.80
46784;DHT22;32544;52.832;13.816;2022-12-07T02:23:07;22.80;48.90
46784;DHT22;32544;52.832;13.816;2022-12-07T02:27:50;22.80;48.70
46784;DHT22;32544;52.832;13.816;2022-12-07T02:29:04;22.80;48.70
46784;DHT22;32544;52.832;13.816;2022-12-07T02:30:10;22.80;48.80
46784;DHT22;32544;52.832;13.816;2022-12-07T02:31:12;22.80;48.80
46784;DHT22;32544;52.832;13.816;2022-12-07T02:33:26;22.80;48.80
46784;DHT22;32544;52.832;13.816;2022-12-07T02:34:33;22.80;48.80
46784;DHT22;32544;52.832;13.816;2022-12-07T02:37:15;22.80;48.80
46784;DHT22;32544;52.832;13.816;2022-12-07T02:38:26;22.80;48.70
46784;DHT22;32544;52.832;13.816;2022-12-07T02:40:12;22.80;48.70
46784;DHT22;32544;52.832;13.816;2022-12-07T02:41:04;22.80;48.70
46784;DHT22;32544;52.832;13.816;2022-12-07T02:42:09;22.80;48.80
46784;DHT22;32544;52.832;13.816;2022-12-07T02:44:17;22.80;48.80
46784;DHT22;32544;52.832;13.816;2022-12-07T02:45:20;22.80;48.80
46784;DHT22;32544;52.832;13.816;2022-12-07T02:46:22;22.80;48.80
46784;DHT22;32544;52.832;13.816;2022-12-07T02:47:24;22.80;48.80
46784;DHT22;32544;52.832;13.816;2022-12-07T02:48:26;22.80;48.80
46784;DHT22;32544;52.832;13.816;2022-12-07T02:49:27;22.80;48.70
46784;DHT22;32544;52.832;13.816;2022-12-07T02:50:28;22.80;48.70
46784;DHT22;32544;52.832;13.816;2022-12-07T02:51:30;22.80;48.70
46784;DHT22;32544;52.832;13.816;2022-12-07T02:52:31;22.80;48.70
46784;DHT22;32544;52.832;13.816;2022-12-07T02:54:35;22.80;48.70
46784;DHT22;32544;52.832;13.816;2022-12-07T02:55:37;22.80;48.80
46784;DHT22;32544;52.832;13.816;2022-12-07T03:00:18;22.80;48.80
46784;DHT22;32544;52.832;13.816;2022-12-07T03:02:20;22.80;48.70
46784;DHT22;32544;52.832;13.816;2022-12-07T03:03:54;22.80;48.70
46784;DHT22;32544;52.832;13.816;2022-12-07T03:05:20;22.80;48.70
46784;DHT22;32544;52.832;13.816;2022-12-07T03:06:28;22.80;48.80
46784;DHT22;32544;52.832;13.816;2022-12-07T03:08:44;22.80;48.70
46784;DHT22;32544;52.832;13.816;2022-12-07T03:09:51;22.80;48.70
46784;DHT22;32544;52.832;13.816;2022-12-07T03:12:07;22.80;48.70
46784;DHT22;32544;52.832;13.816;2022-12-07T03:14:18;22.80;48.70
46784;DHT22;32544;52.832;13.816;2022-12-07T03:15:32;22.80;48.80
46784;DHT22;32544;52.832;13.816;2022-12-07T03:16:35;22.80;48.70
46784;DHT22;32544;52.832;13.816;2022-12-07T03:17:37;22.80;48.70
46784;DHT22;32544;52.832;13.816;2022-12-07T03:18:41;22.80;48.70
46784;DHT22;32544;52.832;13.816;2022-12-07T03:19:44;22.80;48.90
46784;DHT22;32544;52.832;13.816;2022-12-07T03:20:45;22.80;48.90
46784;DHT22;32544;52.832;13.816;2022-12-07T03:21:49;22.80;48.80
46784;DHT22;32544;52.832;13.816;2022-12-07T03:22:50;22.80;48.80
46784;DHT22;32544;52.832;13.816;2022-12-07T03:23:53;22.80;48.70
46784;DHT22;32544;52.832;13.816;2022-12-07T03:24:55;22.80;48.70
46784;DHT22;32544;52.832;13.816;2022-12-07T03:25:57;22.80;48.70
46784;DHT22;32544;52.832;13.816;2022-12-07T03:27:20;22.80;48.70
46784;DHT22;32544;52.832;13.816;2022-12-07T03:28:20;22.80;48.70
46784;DHT22;32544;52.832;13.816;2022-12-07T03:29:37;22.80;48.70
46784;DHT22;32544;52.832;13.816;2022-12-07T03:30:45;22.80;48.70
46784;DHT22;32544;52.832;13.816;2022-12-07T03:31:47;22.80;48.80
46784;DHT22;32544;52.832;13.816;2022-12-07T03:32:57;22.80;48.80
46784;DHT22;32544;52.832;13.816;2022-12-07T03:35:14;22.80;48.70
46784;DHT22;32544;52.832;13.816;2022-12-07T03:36:20;22.80;48.70
46784;DHT22;32544;52.832;13.816;2022-12-07T03:37:33;22.80;48.70
46784;DHT22;32544;52.832;13.816;2022-12-07T03:38:48;22.80;48.70
46784;DHT22;32544;52.832;13.816;2022-12-07T03:39:54;22.80;48.70
46784;DHT22;32544;52.832;13.816;2022-12-07T03:41:01;22.80;48.70
46784;DHT22;32544;52.832;13.816;2022-12-07T03:42:04;22.80;48.70
46784;DHT22;32544;52.832;13.816;2022-12-07T03:43:05;22.80;48.70
46784;DHT22;32544;52.832;13.816;2022-12-07T03:44:06;22.80;48.70
46784;DHT22;32544;52.832;13.816;2022-12-07T03:45:07;22.80;48.70
46784;DHT22;32544;52.832;13.816;2022-12-07T03:47:34;22.80;48.70
46784;DHT22;32544;52.832;13.816;2022-12-07T03:48:44;22.80;48.70
46784;DHT22;32544;52.832;13.816;2022-12-07T03:49:50;22.80;48.70
46784;DHT22;32544;52.832;13.816;2022-12-07T03:53:29;22.80;48.60
46784;DHT22;32544;52.832;13.816;2022-12-07T03:54:54;22.80;48.70
46784;DHT22;32544;52.832;13.816;2022-12-07T03:55:56;22.80;48.60
46784;DHT22;32544;52.832;13.816;2022-12-07T03:56:57;22.80;48.60
46784;DHT22;32544;52.832;13.816;2022-12-07T03:58:00;22.80;48.60
46784;DHT22;32544;52.832;13.816;2022-12-07T03:59:01;22.80;48.60
46784;DHT22;32544;52.832;13.816;2022-12-07T04:00:03;22.80;48.60
46784;DHT22;32544;52.832;13.816;2022-12-07T04:01:12;22.80;48.60
46784;DHT22;32544;52.832;13.816;2022-12-07T04:02:13;22.80;48.60
46784;DHT22;32544;52.832;13.816;2022-12-07T04:03:14;22.80;48.50
46784;DHT22;32544;52.832;13.816;2022-12-07T04:04:15;22.80;48.50
46784;DHT22;32544;52.832;13.816;2022-12-07T04:05:15;22.80;48.50
46784;DHT22;32544;52.832;13.816;2022-12-07T04:06:16;22.90;48.50
46784;DHT22;32544;52.832;13.816;2022-12-07T04:07:16;22.80;48.50
46784;DHT22;32544;52.832;13.816;2022-12-07T04:08:17;22.80;48.50
46784;DHT22;32544;52.832;13.816;2022-12-07T04:09:18;22.80;48.50
46784;DHT22;32544;52.832;13.816;2022-12-07T04:10:18;22.80;48.50
46784;DHT22;32544;52.832;13.816;2022-12-07T04:11:19;22.80;48.50
46784;DHT22;32544;52.832;13.816;2022-12-07T04:12:20;22.80;48.50
46784;DHT22;32544;52.832;13.816;2022-12-07T04:13:21;22.80;48.50
46784;DHT22;32544;52.832;13.816;2022-12-07T04:14:21;22.80;48.50
46784;DHT22;32544;52.832;13.816;2022-12-07T04:15:22;22.80;48.50
46784;DHT22;32544;52.832;13.816;2022-12-07T04:16:22;22.80;48.50
46784;DHT22;32544;52.832;13.816;2022-12-07T04:17:23;22.80;48.50
46784;DHT22;32544;52.832;13.816;2022-12-07T04:18:24;22.80;48.50
46784;DHT22;32544;52.832;13.816;2022-12-07T04:19:25;22.90;48.50
46784;DHT22;32544;52.832;13.816;2022-12-07T04:20:26;22.90;48.50
46784;DHT22;32544;52.832;13.816;2022-12-07T04:21:27;22.80;48.50
46784;DHT22;32544;52.832;13.816;2022-12-07T04:22:27;22.80;48.50
46784;DHT22;32544;52.832;13.816;2022-12-07T04:23:28;22.80;48.50
46784;DHT22;32544;52.832;13.816;2022-12-07T04:24:29;22.80;48.50
46784;DHT22;32544;52.832;13.816;2022-12-07T04:25:29;22.80;48.50
46784;DHT22;32544;52.832;13.816;2022-12-07T04:26:30;22.80;48.50
46784;DHT22;32544;52.832;13.816;2022-12-07T04:27:30;22.80;48.50
46784;DHT22;32544;52.832;13.816;2022-12-07T04:28:31;22.80;48.50
46784;DHT22;32544;52.832;13.816;2022-12-07T04:29:32;22.80;48.50
46784;DHT22;32544;52.832;13.816;2022-12-07T04:30:32;22.80;48.50
46784;DHT22;32544;52.832;13.816;2022-12-07T04:31:33;22.80;48.60
46784;DHT22;32544;52.832;13.816;2022-12-07T04:32:34;22.80;48.50
46784;DHT22;32544;52.832;13.816;2022-12-07T04:33:35;22.80;48.70
46784;DHT22;32544;52.832;13.816;2022-12-07T04:34:35;22.80;48.70
46784;DHT22;32544;52.832;13.816;2022-12-07T04:35:36;22.80;48.70
46784;DHT22;32544;52.832;13.816;2022-12-07T04:36:37;22.80;48.70
46784;DHT22;32544;52.832;13.816;2022-12-07T04:37:37;22.80;48.60
46784;DHT22;32544;52.832;13.816;2022-12-07T04:38:39;22.80;48.70
46784;DHT22;32544;52.832;13.816;2022-12-07T04:39:40;22.80;48.90
46784;DHT22;32544;52.832;13.816;2022-12-07T04:40:41;22.80;48.80
46784;DHT22;32544;52.832;13.816;2022-12-07T04:41:41;22.80;48.80
46784;DHT22;32544;52.832;13.816;2022-12-07T04:42:42;22.80;49.00
46784;DHT22;32544;52.832;13.816;2022-12-07T04:43:43;22.80;48.80
46784;DHT22;32544;52.832;13.816;2022-12-07T04:44:43;22.80;48.90
46784;DHT22;32544;52.832;13.816;2022-12-07T04:45:45;22.80;48.80
46784;DHT22;32544;52.832;13.816;2022-12-07T04:46:46;22.80;48.80
46784;DHT22;32544;52.832;13.816;2022-12-07T04:47:47;22.80;49.00
46784;DHT22;32544;52.832;13.816;2022-12-07T04:48:47;22.80;49.00
46784;DHT22;32544;52.832;13.816;2022-12-07T04:49:48;22.80;49.00
46784;DHT22;32544;52.832;13.816;2022-12-07T04:50:48;22.80;48.80
46784;DHT22;32544;52.832;13.816;2022-12-07T04:51:52;22.80;48.90
46784;DHT22;32544;52.832;13.816;2022-12-07T04:52:53;22.80;49.00
46784;DHT22;32544;52.832;13.816;2022-12-07T04:53:54;22.80;48.80
46784;DHT22;32544;52.832;13.816;2022-12-07T04:54:55;22.80;48.90
46784;DHT22;32544;52.832;13.816;2022-12-07T04:55:55;22.70;48.90
46784;DHT22;32544;52.832;13.816;2022-12-07T04:56:56;22.80;49.00
46784;DHT22;32544;52.832;13.816;2022-12-07T04:57:57;22.70;48.90
46784;DHT22;32544;52.832;13.816;2022-12-07T04:58:57;22.70;48.80
46784;DHT22;32544;52.832;13.816;2022-12-07T04:59:58;22.80;48.90
46784;DHT22;32544;52.832;13.816;2022-12-07T05:00:59;22.70;48.80
46784;DHT22;32544;52.832;13.816;2022-12-07T05:01:59;22.70;48.90
46784;DHT22;32544;52.832;13.816;2022-12-07T05:03:00;22.70;49.50
46784;DHT22;32544;52.832;13.816;2022-12-07T05:04:00;22.70;49.00
46784;DHT22;32544;52.832;13.816;2022-12-07T05:05:01;22.70;48.90
46784;DHT22;32544;52.832;13.816;2022-12-07T05:06:02;22.70;48.90
46784;DHT22;32544;52.832;13.816;2022-12-07T05:07:03;22.70;48.90
46784;DHT22;32544;52.832;13.816;2022-12-07T05:08:03;22.70;48.80
46784;DHT22;32544;52.832;13.816;2022-12-07T05:09:04;22.80;48.90
46784;DHT22;32544;52.832;13.816;2022-12-07T05:10:05;22.70;48.70
46784;DHT22;32544;52.832;13.816;2022-12-07T05:11:06;22.70;48.80
46784;DHT22;32544;52.832;13.816;2022-12-07T05:12:06;22.70;48.80
46784;DHT22;32544;52.832;13.816;2022-12-07T05:13:07;22.70;48.80
46784;DHT22;32544;52.832;13.816;2022-12-07T05:14:12;22.70;48.90
46784;DHT22;32544;52.832;13.816;2022-12-07T05:15:13;22.70;48.80
46784;DHT22;32544;52.832;13.816;2022-12-07T05:16:14;22.70;48.80
46784;DHT22;32544;52.832;13.816;2022-12-07T05:17:14;22.70;48.90
46784;DHT22;32544;52.832;13.816;2022-12-07T05:18:15;22.70;48.70
46784;DHT22;32544;52.832;13.816;2022-12-07T05:19:16;22.70;48.70
46784;DHT22;32544;52.832;13.816;2022-12-07T05:20:17;22.70;48.70
46784;DHT22;32544;52.832;13.816;2022-12-07T05:21:17;22.70;48.70
46784;DHT22;32544;52.832;13.816;2022-12-07T05:22:18;22.70;48.80
46784;DHT22;32544;52.832;13.816;2022-12-07T05:23:18;22.70;48.70
46784;DHT22;32544;52.832;13.816;2022-12-07T05:24:19;22.70;48.70
46784;DHT22;32544;52.832;13.816;2022-12-07T05:25:20;22.70;48.70
46784;DHT22;32544;52.832;13.816;2022-12-07T05:26:20;22.80;48.80
46784;DHT22;32544;52.832;13.816;2022-12-07T05:27:21;22.70;48.70
46784;DHT22;32544;52.832;13.816;2022-12-07T05:28:22;22.80;48.70
46784;DHT22;32544;52.832;13.816;2022-12-07T05:29:23;22.70;48.60
46784;DHT22;32544;52.832;13.816;2022-12-07T05:30:24;22.70;48.60
46784;DHT22;32544;52.832;13.816;2022-12-07T05:31:25;22.70;48.60
46784;DHT22;32544;52.832;13.816;2022-12-07T05:32:26;22.70;48.60
46784;DHT22;32544;52.832;13.816;2022-12-07T05:33:26;22.70;48.70
46784;DHT22;32544;52.832;13.816;2022-12-07T05:34:27;22.70;48.70
46784;DHT22;32544;52.832;13.816;2022-12-07T05:35:27;22.70;48.60
46784;DHT22;32544;52.832;13.816;2022-12-07T05:36:28;22.70;48.60
46784;DHT22;32544;52.832;13.816;2022-12-07T05:37:29;22.70;48.60
46784;DHT22;32544;52.832;13.816;2022-12-07T05:38:29;22.70;48.60
46784;DHT22;32544;52.832;13.816;2022-12-07T05:39:30;22.70;48.60
46784;DHT22;32544;52.832;13.816;2022-12-07T05:40:30;22.80;48.70
46784;DHT22;32544;52.832;13.816;2022-12-07T05:41:31;22.70;48.60
46784;DHT22;32544;52.832;13.816;2022-12-07T05:42:50;22.70;48.60
46784;DHT22;32544;52.832;13.816;2022-12-07T05:43:51;22.70;48.60
46784;DHT22;32544;52.832;13.816;2022-12-07T05:44:51;22.80;48.60
46784;DHT22;32544;52.832;13.816;2022-12-07T05:45:52;22.80;48.60
46784;DHT22;32544;52.832;13.816;2022-12-07T05:46:53;22.80;48.60
46784;DHT22;32544;52.832;13.816;2022-12-07T05:47:53;22.80;48.50
46784;DHT22;32544;52.832;13.816;2022-12-07T05:48:54;22.80;48.60
46784;DHT22;32544;52.832;13.816;2022-12-07T05:49:54;22.80;48.60
46784;DHT22;32544;52.832;13.816;2022-12-07T05:50:55;22.80;48.60
46784;DHT22;32544;52.832;13.816;2022-12-07T05:51:56;22.80;48.50
46784;DHT22;32544;52.832;13.816;2022-12-07T05:52:56;22.80;48.50
46784;DHT22;32544;52.832;13.816;2022-12-07T05:53:57;22.80;48.50
46784;DHT22;32544;52.832;13.816;2022-12-07T05:54:57;22.80;48.40
46784;DHT22;32544;52.832;13.816;2022-12-07T05:55:58;22.80;48.40
46784;DHT22;32544;52.832;13.816;2022-12-07T05:56:59;22.80;48.40
46784;DHT22;32544;52.832;13.816;2022-12-07T05:57:59;22.80;48.40
46784;DHT22;32544;52.832;13.816;2022-12-07T05:59:18;22.80;48.40
46784;DHT22;32544;52.832;13.816;2022-12-07T06:00:27;22.80;48.40
46784;DHT22;32544;52.832;13.816;2022-12-07T06:01:28;22.80;48.40
46784;DHT22;32544;52.832;13.816;2022-12-07T06:02:28;22.80;48.40
46784;DHT22;32544;52.832;13.816;2022-12-07T06:03:29;22.80;48.40
46784;DHT22;32544;52.832;13.816;2022-12-07T06:04:30;22.80;48.40
46784;DHT22;32544;52.832;13.816;2022-12-07T06:05:31;22.80;48.40
46784;DHT22;32544;52.832;13.816;2022-12-07T06:06:32;22.80;48.40
46784;DHT22;32544;52.832;13.816;2022-12-07T06:07:32;22.80;48.40
46784;DHT22;32544;52.832;13.816;2022-12-07T06:08:33;22.80;48.40
46784;DHT22;32544;52.832;13.816;2022-12-07T06:09:34;22.80;48.40
46784;DHT22;32544;52.832;13.816;2022-12-07T06:10:35;22.80;48.40
46784;DHT22;32544;52.832;13.816;2022-12-07T06:11:35;22.80;48.40
46784;DHT22;32544;52.832;13.816;2022-12-07T06:12:54;22.80;48.40
46784;DHT22;32544;52.832;13.816;2022-12-07T06:13:55;22.80;48.40
46784;DHT22;32544;52.832;13.816;2022-12-07T06:14:56;22.80;48.40
46784;DHT22;32544;52.832;13.816;2022-12-07T06:15:56;22.80;48.40
46784;DHT22;32544;52.832;13.816;2022-12-07T06:16:57;22.80;48.40
46784;DHT22;32544;52.832;13.816;2022-12-07T06:17:58;22.80;48.40
46784;DHT22;32544;52.832;13.816;2022-12-07T06:18:58;22.80;48.40
46784;DHT22;32544;52.832;13.816;2022-12-07T06:19:59;22.80;48.40
46784;DHT22;32544;52.832;13.816;2022-12-07T06:21:00;22.80;48.40
46784;DHT22;32544;52.832;13.816;2022-12-07T06:22:00;22.80;48.40
46784;DHT22;32544;52.832;13.816;2022-12-07T06:23:01;22.80;48.40
46784;DHT22;32544;52.832;13.816;2022-12-07T06:24:02;22.80;48.40
46784;DHT22;32544;52.832;13.816;2022-12-07T06:25:03;22.80;48.40
46784;DHT22;32544;52.832;13.816;2022-12-07T06:26:04;22.80;48.40
46784;DHT22;32544;52.832;13.816;2022-12-07T06:27:05;22.80;48.40
46784;DHT22;32544;52.832;13.816;2022-12-07T06:28:06;22.80;48.40
46784;DHT22;32544;52.832;13.816;2022-12-07T06:29:06;22.80;48.40
46784;DHT22;32544;52.832;13.816;2022-12-07T06:30:07;22.80;48.40
46784;DHT22;32544;52.832;13.816;2022-12-07T06:31:08;22.80;48.50
46784;DHT22;32544;52.832;13.816;2022-12-07T06:32:09;22.80;48.50
46784;DHT22;32544;52.832;13.816;2022-12-07T06:33:10;22.80;48.50
46784;DHT22;32544;52.832;13.816;2022-12-07T06:34:12;22.70;48.40
46784;DHT22;32544;52.832;13.816;2022-12-07T06:35:13;22.80;48.50
46784;DHT22;32544;52.832;13.816;2022-12-07T06:36:14;22.80;48.50
46784;DHT22;32544;52.832;13.816;2022-12-07T06:37:14;22.80;48.50
46784;DHT22;32544;52.832;13.816;2022-12-07T06:38:15;22.80;48.80
46784;DHT22;32544;52.832;13.816;2022-12-07T06:39:15;22.80;48.60
46784;DHT22;32544;52.832;13.816;2022-12-07T06:40:16;22.80;48.50
46784;DHT22;32544;52.832;13.816;2022-12-07T06:41:17;22.70;48.50
46784;DHT22;32544;52.832;13.816;2022-12-07T06:42:17;22.80;48.60
46784;DHT22;32544;52.832;13.816;2022-12-07T06:43:18;22.70;48.50
46784;DHT22;32544;52.832;13.816;2022-12-07T06:44:19;22.80;49.20
46784;DHT22;32544;52.832;13.816;2022-12-07T06:45:20;22.80;48.60
46784;DHT22;32544;52.832;13.816;2022-12-07T06:46:20;22.70;48.50
46784;DHT22;32544;52.832;13.816;2022-12-07T06:47:21;22.70;48.50
46784;DHT22;32544;52.832;13.816;2022-12-07T06:48:22;22.80;48.60
46784;DHT22;32544;52.832;13.816;2022-12-07T06:49:22;22.70;48.70
46784;DHT22;32544;52.832;13.816;2022-12-07T06:50:23;22.70;48.70
46784;DHT22;32544;52.832;13.816;2022-12-07T06:51:23;22.70;48.80
46784;DHT22;32544;52.832;13.816;2022-12-07T06:52:24;22.70;48.60
46784;DHT22;32544;52.832;13.816;2022-12-07T06:53:25;22.80;48.70
46784;DHT22;32544;52.832;13.816;2022-12-07T06:54:25;22.70;48.60